Charlotte, New York
Current Conditions -  °F | °C
As of 9:54 AM on Tuesday 21 Oct 2014 (Local Time) from KROC Reporting Station
Light Rain Light Rain  
Wind Chill: 51°   Ceiling: 700
Heat Index: 51°   Visibility: 5mi
Dew Point: 50°   Wind: 5mph
Humidity: 96%   Direction: 250°WSW
Pressure: 29.84"   Gusts: NA
Location:  43.26°N, 77.61°W
Report Text: KROC 211354Z 25004KT 5SM -RA BR BKN007 BKN044 OVC055 11/10 A2984 RMK AO2 SLP107 CIG 005V010 P0001 T01060100
Loading
Personal Weather Stations






























Interactive Weather Map
Tropical Storm Tracking
New forecast layout! Learn more

10-Day Weather Forecast

Advertisements
Track Severe Weather on mobile